Weather at Hagersville Airport (No. 16 SFTS) [CLOSED]

Public forecast

Using degrees Celsius for public forecast. Weather courtesy of forecast.io.

Closest aviation weather report (METAR) to Hagersville Airport (No. 16 SFTS)

Closest report is John C. Munro Hamilton International Airport, 16.9 nm (31.3 km) NNE.

2024/05/27 23:00 (retrieved 17 minutes ago)

CYHM 272300Z 23015G28KT 15SM SCT023 BKN050 BKN250 18/14 A2956 RMK CU3SC4CI1 CI TR CB TOPS DIST SE SLP009 DENSITY ALT 1800FT

Closest aviation forecast (TAF) to Hagersville Airport (No. 16 SFTS)

Closest forecast is John C. Munro Hamilton International Airport, 16.9 nm (31.3 km) NNE.

2024/05/27 18:42 (retrieved 5 hours ago)

TAF TAF CYHM 271740Z 2718/2818 22015G25KT P6SM BKN025 TEMPO 2718/2722 5SM -SHRA BR BKN015 PROB30 2718/2722 VRB20G30KT 2SM +TSRA BR BKN008 OVC020CB FM272200 24020G30KT P6SM BKN025 TEMPO 2722/2803 BKN015 BECMG 2722/2724 24015G25KT FM280300 24012G22KT 6SM -DZ BR BKN008 OVC015 BECMG 2806/2808 28010KT FM281200 28010G20KT P6SM BKN015 OVC060 RMK NXT FCST BY 280000Z